createdAt,value
2023-02-14T00:02:05.665Z,82.73
2023-02-14T00:04:38.323Z,82.49
2023-02-14T00:07:07.223Z,82.64
2023-02-14T00:09:36.409Z,82.61
2023-02-14T00:12:06.134Z,82.53
2023-02-14T00:14:54.140Z,82.77
2023-02-14T00:17:23.048Z,82.89
2023-02-14T00:19:52.205Z,82.43
2023-02-14T00:22:21.132Z,82.64
2023-02-14T00:24:50.229Z,83.82
2023-02-14T00:27:19.119Z,82.95
2023-02-14T00:29:49.739Z,82.83
2023-02-14T00:32:18.620Z,82.98
2023-02-14T00:34:47.721Z,82.63
2023-02-14T00:37:16.698Z,83.10
2023-02-14T00:39:45.841Z,82.96
2023-02-14T00:42:14.731Z,83.38
2023-02-14T00:44:43.925Z,82.69
2023-02-14T00:47:14.627Z,82.82
2023-02-14T00:49:43.917Z,83.20
2023-02-14T00:52:12.939Z,83.54
2023-02-14T00:54:42.171Z,83.53
2023-02-14T00:57:11.109Z,83.26
2023-02-14T00:59:40.285Z,83.58
2023-02-14T01:02:09.139Z,83.50
2023-02-14T01:04:39.840Z,83.22
2023-02-14T01:07:08.496Z,83.49
2023-02-14T01:09:37.607Z,83.21
2023-02-14T01:12:07.084Z,83.08
2023-02-14T01:14:36.503Z,83.23
2023-02-14T01:17:05.418Z,83.55
2023-02-14T01:19:34.632Z,83.67
2023-02-14T01:22:04.984Z,83.20
2023-02-14T01:24:34.218Z,83.96
2023-02-14T01:27:03.035Z,83.92
2023-02-14T01:29:32.447Z,83.39
2023-02-14T01:32:01.493Z,83.01
2023-02-14T01:34:30.793Z,83.60
2023-02-14T01:36:59.644Z,83.80
2023-02-14T01:39:30.242Z,83.91
2023-02-14T01:41:58.912Z,83.55
2023-02-14T01:44:56.300Z,83.78
2023-02-14T01:47:27.103Z,83.73
2023-02-14T01:50:00.736Z,84.16
2023-02-14T01:52:34.347Z,83.71
2023-02-14T01:55:09.352Z,83.95
2023-02-14T01:57:41.868Z,84.00
2023-02-14T02:00:29.849Z,83.80
2023-02-14T02:03:00.272Z,83.34
2023-02-14T02:05:29.827Z,83.49
2023-02-14T02:08:01.392Z,84.40
2023-02-14T02:10:32.013Z,83.58
2023-02-14T02:13:06.221Z,83.95
2023-02-14T02:15:43.029Z,84.02
2023-02-14T02:18:20.658Z,83.54
2023-02-14T02:21:14.721Z,83.82
2023-02-14T02:24:25.765Z,84.04
2023-02-14T02:27:31.627Z,84.19
2023-02-14T02:30:35.060Z,83.73
2023-02-14T02:33:44.827Z,84.05
2023-02-14T02:36:47.878Z,83.94
2023-02-14T02:39:32.845Z,83.91
2023-02-14T02:42:09.519Z,84.15
2023-02-14T02:44:51.169Z,83.92
2023-02-14T02:47:27.609Z,83.95
2023-02-14T02:50:24.631Z,84.24
2023-02-14T02:53:04.224Z,83.97
2023-02-14T02:56:00.738Z,84.25
2023-02-14T02:58:36.640Z,83.96
2023-02-14T03:01:15.316Z,84.10
2023-02-14T03:04:06.713Z,83.61
2023-02-14T03:06:36.367Z,83.55
2023-02-14T03:09:53.152Z,83.61
2023-02-14T03:12:59.670Z,84.01
2023-02-14T03:15:48.999Z,83.86
2023-02-14T03:18:34.632Z,83.91
2023-02-14T03:21:10.972Z,84.12
2023-02-14T03:23:51.852Z,83.72
2023-02-14T03:26:28.509Z,83.45
2023-02-14T03:29:05.698Z,84.14
2023-02-14T03:31:40.094Z,83.72
2023-02-14T03:34:13.824Z,83.65
2023-02-14T03:36:50.162Z,83.85
2023-02-14T03:39:26.222Z,84.06
2023-02-14T03:42:06.109Z,83.64
2023-02-14T03:44:37.884Z,83.68
2023-02-14T03:47:11.388Z,83.55
2023-02-14T03:49:44.842Z,83.78
2023-02-14T03:52:15.356Z,83.90
2023-02-14T03:54:46.645Z,83.92
2023-02-14T03:57:22.912Z,83.82
2023-02-14T03:59:52.293Z,83.96
2023-02-14T04:02:26.307Z,83.57
2023-02-14T04:04:57.785Z,83.75
2023-02-14T04:07:27.243Z,83.89
2023-02-14T04:09:56.346Z,83.41
2023-02-14T04:12:37.476Z,83.61
2023-02-14T04:15:08.718Z,83.94
2023-02-14T04:17:55.523Z,84.09
2023-02-14T04:20:24.747Z,84.00
2023-02-14T04:22:53.776Z,84.13
2023-02-14T04:25:23.684Z,84.07
2023-02-14T04:27:53.893Z,84.14
2023-02-14T04:30:23.483Z,84.25
2023-02-14T04:32:52.384Z,84.25
2023-02-14T04:35:21.565Z,83.96
2023-02-14T04:37:50.488Z,84.37
2023-02-14T04:40:19.785Z,84.35
2023-02-14T04:42:49.328Z,84.27
2023-02-14T04:45:20.066Z,84.08
2023-02-14T04:47:48.973Z,83.75
2023-02-14T04:50:18.153Z,83.92
2023-02-14T04:52:47.085Z,84.16
2023-02-14T04:55:16.222Z,84.47
2023-02-14T04:57:45.297Z,84.07
2023-02-14T05:00:15.752Z,84.31
2023-02-14T05:02:46.043Z,84.14
2023-02-14T05:05:15.320Z,84.16
2023-02-14T05:07:47.763Z,84.42
2023-02-14T05:10:17.187Z,84.35
2023-02-14T05:12:46.003Z,84.54
2023-02-14T05:15:15.910Z,84.63
2023-02-14T05:17:46.118Z,84.56
2023-02-14T05:20:15.497Z,84.52
2023-02-14T05:22:44.301Z,84.69
2023-02-14T05:25:13.556Z,84.50
2023-02-14T05:27:42.388Z,84.83
2023-02-14T05:30:13.078Z,84.76
2023-02-14T05:32:42.072Z,84.48
2023-02-14T05:35:12.724Z,84.83
2023-02-14T05:37:41.487Z,84.88
2023-02-14T05:40:13.495Z,84.93
2023-02-14T05:42:42.722Z,85.00
2023-02-14T05:45:12.746Z,85.10
2023-02-14T05:47:41.968Z,85.31
2023-02-14T05:50:13.140Z,85.18
2023-02-14T05:52:42.100Z,85.14
2023-02-14T05:55:12.427Z,85.21
2023-02-14T05:57:41.423Z,84.94
2023-02-14T06:00:11.887Z,85.05
2023-02-14T06:02:43.584Z,85.13
2023-02-14T06:05:14.895Z,85.37
2023-02-14T06:07:48.890Z,85.20
2023-02-14T06:10:19.121Z,85.11
2023-02-14T06:12:50.183Z,85.19
2023-02-14T06:15:19.772Z,85.25
2023-02-14T06:17:53.879Z,84.97
2023-02-14T06:20:25.506Z,84.93
2023-02-14T06:22:54.825Z,85.35
2023-02-14T06:25:24.669Z,85.04
2023-02-14T06:27:56.841Z,85.28
2023-02-14T06:30:27.221Z,85.58
2023-02-14T06:32:56.160Z,85.43
2023-02-14T06:35:26.693Z,85.85
2023-02-14T06:37:55.682Z,86.08
2023-02-14T06:40:25.171Z,85.71
2023-02-14T06:42:54.195Z,85.72
2023-02-14T06:45:23.291Z,85.72
2023-02-14T06:47:52.155Z,85.69
2023-02-14T06:50:21.477Z,85.90
2023-02-14T06:52:51.898Z,85.84
2023-02-14T06:55:21.104Z,85.85
2023-02-14T06:57:49.962Z,85.81
2023-02-14T07:00:20.446Z,85.73
2023-02-14T07:02:49.344Z,85.87
2023-02-14T07:05:19.327Z,85.94
2023-02-14T07:07:48.298Z,85.81
2023-02-14T07:10:19.020Z,85.69
2023-02-14T07:12:47.926Z,85.81
2023-02-14T07:15:17.061Z,85.97
2023-02-14T07:17:46.231Z,85.40
2023-02-14T07:20:15.738Z,86.00
2023-02-14T07:22:44.889Z,85.96
2023-02-14T07:25:14.800Z,86.12
2023-02-14T07:27:46.324Z,85.94
2023-02-14T07:30:16.470Z,86.23
2023-02-14T07:32:45.371Z,86.18
2023-02-14T07:35:15.368Z,85.99
2023-02-14T07:37:44.344Z,85.93
2023-02-14T07:40:15.289Z,85.83
2023-02-14T07:42:45.837Z,86.03
2023-02-14T07:45:21.675Z,86.04
2023-02-14T07:47:52.556Z,85.99
2023-02-14T07:50:22.606Z,86.21
2023-02-14T07:52:51.820Z,86.38
2023-02-14T07:55:21.130Z,86.21
2023-02-14T07:57:52.004Z,85.66
2023-02-14T08:00:22.318Z,86.10
2023-02-14T08:02:51.335Z,86.11
2023-02-14T08:05:20.751Z,85.96
2023-02-14T08:07:50.548Z,85.79
2023-02-14T08:10:19.986Z,85.92
2023-02-14T08:13:03.617Z,86.20
2023-02-14T08:15:52.244Z,85.89
2023-02-14T08:18:23.689Z,85.99
2023-02-14T08:20:53.199Z,85.52
2023-02-14T08:23:22.723Z,85.37
2023-02-14T08:25:53.165Z,85.34
2023-02-14T08:28:23.857Z,85.26
2023-02-14T08:30:54.206Z,84.98
2023-02-14T08:33:24.125Z,85.23
2023-02-14T08:35:53.814Z,85.46
2023-02-14T08:38:23.011Z,85.27
2023-02-14T08:40:52.199Z,84.76
2023-02-14T08:43:22.556Z,85.07
2023-02-14T08:45:54.899Z,85.11
2023-02-14T08:48:25.404Z,84.96
2023-02-14T08:50:54.567Z,84.42
2023-02-14T08:53:23.454Z,84.75
2023-02-14T08:55:52.773Z,84.55
2023-02-14T08:58:23.126Z,84.10
2023-02-14T09:00:52.335Z,84.66
2023-02-14T09:03:21.353Z,84.46
2023-02-14T09:05:50.685Z,84.10
2023-02-14T09:08:19.721Z,84.15
2023-02-14T09:10:48.938Z,83.69
2023-02-14T09:13:17.926Z,83.66
2023-02-14T09:15:48.527Z,83.32
2023-02-14T09:18:17.305Z,83.22
2023-02-14T09:20:46.511Z,83.51
2023-02-14T09:23:15.429Z,82.77
2023-02-14T09:25:44.613Z,82.52
2023-02-14T09:28:13.519Z,82.56
2023-02-14T09:30:42.675Z,82.62
2023-02-14T09:33:12.991Z,83.04
2023-02-14T09:35:42.204Z,83.09
2023-02-14T09:38:18.871Z,82.55
2023-02-14T09:40:50.527Z,82.79
2023-02-14T09:43:24.953Z,82.38
2023-02-14T09:45:56.802Z,81.73
2023-02-14T09:48:32.656Z,81.78
2023-02-14T09:51:06.443Z,81.24
2023-02-14T09:53:41.348Z,81.94
2023-02-14T09:56:17.914Z,81.44
2023-02-14T09:58:56.930Z,81.26
2023-02-14T10:01:33.396Z,81.57
2023-02-14T10:04:17.519Z,80.87
2023-02-14T10:06:58.114Z,81.14
2023-02-14T10:09:41.820Z,79.98
2023-02-14T10:12:17.615Z,80.16
2023-02-14T10:14:47.157Z,80.23
2023-02-14T10:17:22.036Z,80.28
2023-02-14T10:19:58.927Z,80.18
2023-02-14T10:22:38.419Z,79.63
2023-02-14T10:25:19.095Z,79.46
2023-02-14T10:27:49.972Z,79.53
2023-02-14T10:30:23.182Z,78.95
2023-02-14T10:33:00.651Z,78.10
2023-02-14T10:35:39.874Z,78.74
2023-02-14T10:38:23.500Z,78.62
2023-02-14T10:41:21.602Z,78.24
2023-02-14T10:44:03.030Z,78.54
2023-02-14T10:46:39.791Z,77.91
2023-02-14T10:49:24.744Z,78.06
2023-02-14T10:52:02.749Z,77.88
2023-02-14T10:54:39.389Z,77.56
2023-02-14T10:57:15.861Z,77.18
2023-02-14T10:59:53.802Z,76.75
2023-02-14T11:02:26.172Z,76.57
2023-02-14T11:04:56.066Z,76.44
2023-02-14T11:07:26.810Z,76.22
2023-02-14T11:09:56.497Z,75.88
2023-02-14T11:12:38.512Z,75.30
2023-02-14T11:15:23.496Z,74.90
2023-02-14T11:18:08.814Z,73.90
2023-02-14T11:20:38.107Z,74.03
2023-02-14T11:23:22.035Z,71.85
2023-02-14T11:25:55.460Z,70.75
2023-02-14T11:28:24.805Z,69.09
2023-02-14T11:30:54.586Z,67.45
2023-02-14T11:33:45.806Z,67.45
2023-02-14T11:36:17.991Z,67.93
2023-02-14T11:38:57.674Z,68.21
2023-02-14T11:41:26.867Z,68.40
2023-02-14T11:44:15.491Z,67.81
2023-02-14T11:46:53.112Z,68.32
2023-02-14T11:49:30.296Z,68.40
2023-02-14T11:52:02.976Z,68.30
2023-02-14T11:54:36.819Z,67.81
2023-02-14T11:57:08.536Z,67.83
2023-02-14T11:59:42.764Z,67.84
2023-02-14T12:02:30.045Z,68.01
2023-02-14T12:05:02.915Z,67.63
2023-02-14T12:07:35.240Z,68.19
2023-02-14T12:10:26.440Z,66.87
2023-02-14T12:13:01.633Z,66.57
2023-02-14T12:15:37.848Z,67.57
2023-02-14T12:18:51.465Z,65.98
2023-02-14T12:21:49.529Z,66.33
2023-02-14T12:24:26.833Z,65.16
2023-02-14T12:27:07.707Z,65.05
2023-02-14T12:29:41.729Z,65.77
2023-02-14T12:32:19.429Z,65.89
2023-02-14T12:34:49.049Z,65.32
2023-02-14T12:37:41.919Z,65.79
2023-02-14T12:40:21.296Z,66.27
2023-02-14T12:43:14.872Z,66.05
2023-02-14T12:46:09.911Z,65.82
2023-02-14T12:48:53.467Z,65.70
2023-02-14T12:51:30.402Z,65.80
2023-02-14T12:54:09.540Z,66.28
2023-02-14T12:56:51.010Z,65.47
2023-02-14T12:59:31.102Z,65.67
2023-02-14T13:02:25.517Z,65.89
2023-02-14T13:05:02.781Z,65.92
2023-02-14T13:07:47.953Z,65.13
2023-02-14T13:10:26.352Z,65.65
2023-02-14T13:13:03.119Z,65.70
2023-02-14T13:15:44.561Z,65.86
2023-02-14T13:18:22.197Z,66.22
2023-02-14T13:20:55.687Z,66.37
2023-02-14T13:23:30.649Z,66.11
2023-02-14T13:26:03.614Z,66.43
2023-02-14T13:28:33.769Z,66.93
2023-02-14T13:31:05.204Z,66.79
2023-02-14T13:33:38.394Z,66.85
2023-02-14T13:36:10.835Z,67.49
2023-02-14T13:38:48.986Z,67.46
2023-02-14T13:41:19.238Z,67.51
2023-02-14T13:43:57.235Z,67.37
2023-02-14T13:46:52.202Z,67.56
2023-02-14T13:49:34.578Z,67.98
2023-02-14T13:52:04.945Z,67.82
2023-02-14T13:54:38.669Z,68.08
2023-02-14T13:57:31.693Z,68.05
2023-02-14T14:00:46.918Z,68.04
2023-02-14T14:03:57.942Z,68.07
2023-02-14T14:06:27.709Z,67.94
2023-02-14T14:08:58.700Z,68.09
2023-02-14T14:12:00.883Z,68.15
2023-02-14T14:14:36.501Z,68.16
2023-02-14T14:17:26.118Z,67.82
2023-02-14T14:19:58.017Z,68.09
2023-02-14T14:22:28.463Z,68.15
2023-02-14T14:25:02.974Z,68.13
2023-02-14T14:27:35.844Z,68.00
2023-02-14T14:30:16.262Z,68.02
2023-02-14T14:32:45.694Z,68.07
2023-02-14T14:35:23.722Z,68.25
2023-02-14T14:37:55.063Z,68.33
2023-02-14T14:40:28.830Z,68.54
2023-02-14T14:43:01.968Z,68.82
2023-02-14T14:45:32.517Z,69.22
2023-02-14T14:48:09.274Z,69.33
2023-02-14T14:50:40.034Z,69.39
2023-02-14T14:53:19.625Z,69.11
2023-02-14T14:55:52.130Z,69.60
2023-02-14T14:58:45.357Z,69.35
2023-02-14T15:01:28.730Z,69.52
2023-02-14T15:04:12.213Z,69.65
2023-02-14T15:06:43.459Z,69.72
2023-02-14T15:09:22.354Z,69.92
2023-02-14T15:12:12.176Z,70.33
2023-02-14T15:14:44.573Z,70.48
2023-02-14T15:17:19.481Z,70.49
2023-02-14T15:19:54.035Z,70.92
2023-02-14T15:22:27.694Z,70.72
2023-02-14T15:24:58.874Z,70.41
2023-02-14T15:27:29.493Z,70.82
2023-02-14T15:30:00.653Z,70.86
2023-02-14T15:32:33.458Z,70.75
2023-02-14T15:35:05.487Z,70.68
2023-02-14T15:37:36.426Z,71.14
2023-02-14T15:40:08.719Z,71.25
2023-02-14T15:42:44.940Z,71.26
2023-02-14T15:45:19.213Z,71.11
2023-02-14T15:47:51.312Z,71.42
2023-02-14T15:50:24.393Z,71.63
2023-02-14T15:52:56.917Z,70.70
2023-02-14T15:55:28.545Z,71.75
2023-02-14T15:58:00.953Z,72.08
2023-02-14T16:00:31.605Z,71.94
2023-02-14T16:03:02.798Z,72.09
2023-02-14T16:05:32.200Z,72.50
2023-02-14T16:08:04.896Z,72.03
2023-02-14T16:10:35.647Z,71.79
2023-02-14T16:13:08.621Z,72.61
2023-02-14T16:15:39.077Z,72.26
2023-02-14T16:18:20.859Z,71.83
2023-02-14T16:20:51.299Z,72.65
2023-02-14T16:23:30.992Z,72.23
2023-02-14T16:26:00.204Z,72.79
2023-02-14T16:28:31.497Z,72.63
2023-02-14T16:31:05.662Z,72.87
2023-02-14T16:33:37.004Z,72.28
2023-02-14T16:36:09.470Z,73.00
2023-02-14T16:38:43.858Z,72.32
2023-02-14T16:41:18.857Z,72.29
2023-02-14T16:43:48.798Z,73.11
2023-02-14T16:46:18.980Z,72.71
2023-02-14T16:48:52.113Z,73.07
2023-02-14T16:51:23.595Z,73.09
2023-02-14T16:53:54.809Z,73.03
2023-02-14T16:56:28.645Z,72.54
2023-02-14T16:58:58.609Z,73.24
2023-02-14T17:01:27.693Z,72.70
2023-02-14T17:03:56.721Z,73.42
2023-02-14T17:06:28.954Z,73.14
2023-02-14T17:09:02.122Z,73.08
2023-02-14T17:11:33.094Z,73.11
2023-02-14T17:14:02.113Z,72.92
2023-02-14T17:16:32.705Z,73.13
2023-02-14T17:19:04.246Z,73.63
2023-02-14T17:21:34.513Z,73.54
2023-02-14T17:24:05.387Z,73.91
2023-02-14T17:26:35.153Z,73.33
2023-02-14T17:29:03.980Z,73.11
2023-02-14T17:31:33.616Z,73.81
2023-02-14T17:34:02.560Z,73.53
2023-02-14T17:36:32.418Z,74.44
2023-02-14T17:39:03.304Z,73.88
2023-02-14T17:41:34.379Z,74.08
2023-02-14T17:44:05.165Z,74.30
2023-02-14T17:46:34.646Z,73.70
2023-02-14T17:49:04.033Z,73.99
2023-02-14T17:51:33.530Z,74.04
2023-02-14T17:54:02.416Z,74.17
2023-02-14T17:56:33.514Z,74.36
2023-02-14T17:59:02.558Z,74.34
2023-02-14T18:01:34.374Z,74.24
2023-02-14T18:04:05.653Z,74.16
2023-02-14T18:06:34.994Z,74.52
2023-02-14T18:09:06.994Z,74.12
2023-02-14T18:11:39.966Z,74.89
2023-02-14T18:14:09.583Z,74.70
2023-02-14T18:16:40.328Z,74.99
2023-02-14T18:19:10.111Z,75.02
2023-02-14T18:21:40.441Z,74.88
2023-02-14T18:24:10.397Z,75.38
2023-02-14T18:26:43.077Z,75.09
2023-02-14T18:29:15.156Z,74.54
2023-02-14T18:31:45.638Z,75.58
2023-02-14T18:34:14.705Z,75.29
2023-02-14T18:36:43.984Z,74.79
2023-02-14T18:39:13.197Z,74.72
2023-02-14T18:41:44.045Z,75.13
2023-02-14T18:44:13.745Z,75.11
2023-02-14T18:46:42.937Z,75.36
2023-02-14T18:49:13.341Z,74.99
2023-02-14T18:51:43.653Z,75.93
2023-02-14T18:54:12.587Z,75.23
2023-02-14T18:56:43.132Z,75.50
2023-02-14T18:59:14.414Z,75.23
2023-02-14T19:01:46.153Z,75.21
2023-02-14T19:04:17.786Z,75.52
2023-02-14T19:06:47.003Z,75.63
2023-02-14T19:09:17.241Z,74.98
2023-02-14T19:11:48.454Z,75.24
2023-02-14T19:14:20.326Z,75.38
2023-02-14T19:16:53.637Z,75.73
2023-02-14T19:19:24.199Z,75.39
2023-02-14T19:21:54.504Z,75.79
2023-02-14T19:24:25.605Z,75.04
2023-02-14T19:26:57.842Z,75.94
2023-02-14T19:29:27.106Z,75.23
2023-02-14T19:31:59.570Z,75.53
2023-02-14T19:34:31.655Z,75.58
2023-02-14T19:37:02.493Z,75.25
2023-02-14T19:39:31.917Z,75.60
2023-02-14T19:42:04.476Z,75.87
2023-02-14T19:44:33.576Z,75.79
2023-02-14T19:47:15.689Z,75.84
2023-02-14T19:49:53.506Z,75.62
2023-02-14T19:52:26.857Z,75.48
2023-02-14T19:54:57.600Z,75.82
2023-02-14T19:57:28.400Z,76.01
2023-02-14T19:59:57.569Z,76.20
2023-02-14T20:02:27.021Z,75.67
2023-02-14T20:04:59.480Z,75.82
2023-02-14T20:07:29.044Z,75.48
2023-02-14T20:09:58.156Z,75.91
2023-02-14T20:12:28.819Z,75.34
2023-02-14T20:14:57.732Z,76.14
2023-02-14T20:17:27.095Z,76.01
2023-02-14T20:19:56.539Z,76.17
2023-02-14T20:22:26.009Z,75.79
2023-02-14T20:24:55.658Z,76.06
2023-02-14T20:27:25.877Z,75.68
2023-02-14T20:29:56.576Z,76.39
2023-02-14T20:32:26.047Z,75.79
2023-02-14T20:34:57.914Z,75.99
2023-02-14T20:37:27.253Z,75.88
2023-02-14T20:39:56.081Z,75.84
2023-02-14T20:42:25.439Z,75.77
2023-02-14T20:44:55.768Z,76.13
2023-02-14T20:47:25.003Z,75.87
2023-02-14T20:49:53.902Z,76.30
2023-02-14T20:52:23.257Z,76.08
2023-02-14T20:54:52.077Z,75.86
2023-02-14T20:57:21.471Z,76.33
2023-02-14T20:59:50.405Z,76.16
2023-02-14T21:02:20.979Z,76.27
2023-02-14T21:04:50.019Z,76.39
2023-02-14T21:07:19.330Z,75.99
2023-02-14T21:09:48.204Z,76.05
2023-02-14T21:12:17.376Z,76.41
2023-02-14T21:14:46.318Z,76.55
2023-02-14T21:17:15.614Z,76.29
2023-02-14T21:19:46.007Z,76.00
2023-02-14T21:22:15.610Z,76.24
2023-02-14T21:24:44.520Z,76.16
2023-02-14T21:27:13.961Z,76.40
2023-02-14T21:29:42.947Z,76.24
2023-02-14T21:32:12.263Z,76.25
2023-02-14T21:34:41.375Z,76.29
2023-02-14T21:37:12.913Z,76.14
2023-02-14T21:39:41.864Z,75.96
2023-02-14T21:42:11.880Z,76.42
2023-02-14T21:44:58.367Z,76.40
2023-02-14T21:47:27.763Z,76.52
2023-02-14T21:50:14.274Z,76.76
2023-02-14T21:52:44.848Z,76.69
2023-02-14T21:55:13.558Z,76.39
2023-02-14T21:57:42.711Z,76.89
2023-02-14T22:00:12.601Z,76.82
2023-02-14T22:02:41.814Z,77.17
2023-02-14T22:05:10.741Z,76.73
2023-02-14T22:07:39.969Z,76.87
2023-02-14T22:10:12.894Z,76.41
2023-02-14T22:12:42.185Z,76.61
2023-02-14T22:15:11.426Z,76.94
2023-02-14T22:17:40.696Z,76.79
2023-02-14T22:20:11.122Z,76.77
2023-02-14T22:22:40.326Z,77.12
2023-02-14T22:25:10.628Z,76.54
2023-02-14T22:27:40.981Z,76.66
2023-02-14T22:30:10.697Z,76.60
2023-02-14T22:32:39.843Z,76.82
2023-02-14T22:35:09.340Z,76.84
2023-02-14T22:37:38.465Z,76.95
2023-02-14T22:40:09.868Z,76.80
2023-02-14T22:42:39.058Z,76.95
2023-02-14T22:45:08.826Z,77.34
2023-02-14T22:47:38.065Z,77.10
2023-02-14T22:50:07.997Z,77.19
2023-02-14T22:52:37.501Z,77.07
2023-02-14T22:55:06.848Z,77.00
2023-02-14T22:57:37.354Z,76.92
2023-02-14T23:00:11.609Z,77.06
2023-02-14T23:02:40.874Z,77.17
2023-02-14T23:05:09.996Z,77.18
2023-02-14T23:07:39.193Z,77.08
2023-02-14T23:10:09.318Z,76.67
2023-02-14T23:12:57.195Z,76.77
2023-02-14T23:15:43.386Z,77.32
2023-02-14T23:18:32.027Z,77.30
2023-02-14T23:21:18.187Z,77.03
2023-02-14T23:23:47.485Z,77.36
2023-02-14T23:26:20.846Z,76.82
2023-02-14T23:28:51.514Z,76.63
2023-02-14T23:31:20.802Z,77.57
2023-02-14T23:33:52.725Z,77.07
2023-02-14T23:36:21.616Z,77.27
2023-02-14T23:38:50.735Z,77.34
2023-02-14T23:41:37.212Z,77.04
2023-02-14T23:44:09.019Z,77.31
2023-02-14T23:46:37.994Z,77.11
2023-02-14T23:49:07.548Z,77.24
2023-02-14T23:51:37.325Z,77.40
2023-02-14T23:54:07.341Z,77.20
2023-02-14T23:56:36.744Z,76.81
2023-02-14T23:59:08.038Z,77.61
